Time;durP1;ratioP1;P1;durP2;ratioP2;P2;SDS_P1;SDS_P2;PMS_P1;PMS_P2;Temp;Humidity;BMP_temperature;BMP_pressure;BME280_temperature;BME280_humidity;BME280_pressure;Samples;Min_cycle;Max_cycle;Signal;HPM_P1;HPM_P2
2022/02/09 00:01:56;;;;;;;8.75;6.57;;;;;;;;;;4813569;29;88941;-78
2022/02/09 00:03:59;;;;;;;11.90;7.25;;;;;;;;;;4811063;29;86895;-78
2022/02/09 00:06:45;;;;;;;7.97;6.78;;;;;;;;;;4813496;29;86209;-77
2022/02/09 00:09:12;;;;;;;7.72;6.85;;;;;;;;;;4830967;29;89107;-77
2022/02/09 00:11:46;;;;;;;13.27;7.35;;;;;;;;;;4830514;29;89083;-77
2022/02/09 00:22:43;;;;;;;;;;;;;;;;;;4831098;29;88234;-78
2022/02/09 00:26:23;;;;;;;9.00;7.10;;;;;;;;;;4830748;29;87468;-76
2022/02/09 00:28:43;;;;;;;10.85;7.25;;;;;;;;;;4833609;29;86833;-76
2022/02/09 01:39:59;;;;;;;10.52;5.25;;;;;;;;;;4808941;29;89538;-78
2022/02/09 01:56:41;;;;;;;7.75;6.97;;;;;;;;;;4773104;29;86258;-78
2022/02/09 01:59:08;;;;;;;7.05;6.35;;;;;;;;;;4794906;29;89460;-75
2022/02/09 02:01:35;;;;;;;8.57;6.47;;;;;;;;;;4823576;29;89647;-75
2022/02/09 02:04:03;;;;;;;22.60;7.95;;;;;;;;;;4827949;29;88319;-79
2022/02/09 02:06:31;;;;;;;9.65;6.25;;;;;;;;;;4828711;29;86908;-77
2022/02/09 02:08:58;;;;;;;7.00;6.10;;;;;;;;;;4829050;29;88639;-78
2022/02/09 02:11:38;;;;;;;7.00;6.07;;;;;;;;;;4814842;29;89710;-77
2022/02/09 02:17:04;;;;;;;6.82;5.70;;;;;;;;;;4828824;29;87228;-77
2022/02/09 02:20:14;;;;;;;11.52;8.23;;;;;;;;;;4825860;29;90413;-79
2022/02/09 02:22:43;;;;;;;8.07;6.60;;;;;;;;;;4819458;29;88844;-77
2022/02/09 02:46:41;;;;;;;7.15;6.45;;;;;;;;;;4818817;29;87283;-76
2022/02/09 03:08:43;;;;;;;6.05;4.80;;;;;;;;;;4818062;29;86983;-78
2022/02/09 03:13:51;;;;;;;5.68;5.07;;;;;;;;;;4830850;29;89377;-77
2022/02/09 03:16:28;;;;;;;6.30;5.70;;;;;;;;;;4837550;29;89241;-77
2022/02/09 03:30:54;;;;;;;6.07;5.40;;;;;;;;;;4819953;29;90137;-77
2022/02/09 03:44:25;;;;;;;6.70;5.80;;;;;;;;;;4831160;29;86313;-77
2022/02/09 03:50:22;;;;;;;7.63;5.97;;;;;;;;;;4830229;29;89465;-77
2022/02/09 03:53:05;;;;;;;8.30;7.10;;;;;;;;;;4830527;29;87923;-77
2022/02/09 03:58:04;;;;;;;6.90;6.30;;;;;;;;;;4814377;29;89251;-76
2022/02/09 04:00:36;;;;;;;7.93;6.82;;;;;;;;;;4830475;29;89026;-76
2022/02/09 04:03:05;;;;;;;10.55;8.23;;;;;;;;;;4830071;29;86977;-74
2022/02/09 04:05:32;;;;;;;8.95;6.80;;;;;;;;;;4831106;29;86786;-76
2022/02/09 04:08:00;;;;;;;10.43;6.85;;;;;;;;;;4845019;29;89206;-77
2022/02/09 04:10:36;;;;;;;7.05;6.18;;;;;;;;;;4829596;29;89208;-77
2022/02/09 04:16:09;;;;;;;9.43;7.03;;;;;;;;;;4829497;29;87044;-77
2022/02/09 04:19:00;;;;;;;7.07;6.38;;;;;;;;;;4830335;29;90216;-77
2022/02/09 04:38:19;;;;;;;7.45;5.95;;;;;;;;;;4808525;29;86138;-79
2022/02/09 04:41:18;;;;;;;7.88;7.05;;;;;;;;;;4829519;29;89634;-77
2022/02/09 04:44:05;;;;;;;8.00;7.20;;;;;;;;;;4822381;29;88514;-77
2022/02/09 04:52:13;;;;;;;8.40;7.50;;;;;;;;;;4829619;29;88135;-77
2022/02/09 04:57:16;;;;;;;7.20;6.60;;;;;;;;;;4841199;29;86909;-76
2022/02/09 04:59:54;;;;;;;6.55;5.95;;;;;;;;;;4799515;29;86919;-76
2022/02/09 05:02:44;;;;;;;8.27;6.63;;;;;;;;;;4815325;29;89526;-76
2022/02/09 05:05:42;;;;;;;12.05;7.03;;;;;;;;;;4830821;29;87175;-77
2022/02/09 05:22:14;;;;;;;7.70;5.22;;;;;;;;;;4817430;29;86922;-75
2022/02/09 05:27:34;;;;;;;6.25;5.65;;;;;;;;;;4827833;29;87620;-76
2022/02/09 05:30:08;;;;;;;7.80;5.45;;;;;;;;;;4828081;29;87086;-76
2022/02/09 05:32:36;;;;;;;11.95;6.55;;;;;;;;;;4829455;29;86204;-75
2022/02/09 05:35:04;;;;;;;6.75;5.43;;;;;;;;;;4812078;29;88716;-75
2022/02/09 05:37:30;;;;;;;6.68;4.93;;;;;;;;;;4825626;29;88912;-75
2022/02/09 05:39:57;;;;;;;7.75;5.78;;;;;;;;;;4797349;29;87850;-75
2022/02/09 05:42:25;;;;;;;8.80;5.63;;;;;;;;;;4830316;29;87011;-75
2022/02/09 05:44:52;;;;;;;7.68;5.47;;;;;;;;;;4828757;29;89285;-75
2022/02/09 05:49:50;;;;;;;7.70;6.07;;;;;;;;;;4814402;29;86804;-78
2022/02/09 05:52:28;;;;;;;9.57;5.57;;;;;;;;;;4830190;29;86952;-76
2022/02/09 05:55:19;;;;;;;9.23;6.05;;;;;;;;;;4842158;29;89777;-73
2022/02/09 05:57:52;;;;;;;10.70;6.45;;;;;;;;;;4815933;29;89502;-72
2022/02/09 06:00:19;;;;;;;7.60;6.35;;;;;;;;;;4829683;29;86994;-80
2022/02/09 06:02:47;;;;;;;7.85;6.15;;;;;;;;;;4826133;29;87450;-79
2022/02/09 06:05:16;;;;;;;8.18;6.80;;;;;;;;;;4826631;29;90651;-78
2022/02/09 06:07:49;;;;;;;17.52;6.45;;;;;;;;;;4828167;29;90285;-80
2022/02/09 06:10:19;;;;;;;10.40;6.10;;;;;;;;;;4839772;29;87227;-81
2022/02/09 06:12:56;;;;;;;9.73;6.53;;;;;;;;;;4813106;29;87015;-80
2022/02/09 06:15:57;;;;;;;7.00;6.25;;;;;;;;;;4824700;29;89247;-79
2022/02/09 06:21:04;;;;;;;11.70;6.53;;;;;;;;;;4819413;29;87343;-81
2022/02/09 06:23:34;;;;;;;11.07;6.22;;;;;;;;;;4800461;29;86159;-81
2022/02/09 06:26:02;;;;;;;12.23;6.28;;;;;;;;;;4832706;29;89630;-80
2022/02/09 06:28:29;;;;;;;9.27;7.53;;;;;;;;;;4825450;29;89543;-81
2022/02/09 06:30:57;;;;;;;10.57;6.35;;;;;;;;;;4824204;29;88570;-83
2022/02/09 06:33:24;;;;;;;8.00;5.93;;;;;;;;;;4831905;29;86948;-79
2022/02/09 06:35:56;;;;;;;7.05;5.47;;;;;;;;;;4831735;29;89139;-80
2022/02/09 06:38:23;;;;;;;12.65;5.13;;;;;;;;;;4832859;29;88049;-81
2022/02/09 06:40:55;;;;;;;9.15;5.10;;;;;;;;;;4815657;29;86871;-80
2022/02/09 06:43:22;;;;;;;7.90;5.70;;;;;;;;;;4834965;29;87139;-79
2022/02/09 06:45:50;;;;;;;7.28;5.85;;;;;;;;;;4848870;29;89175;-81
2022/02/09 06:48:18;;;;;;;12.85;5.55;;;;;;;;;;4815387;29;90019;-81
2022/02/09 06:50:56;;;;;;;6.13;5.35;;;;;;;;;;4833836;29;86958;-81
2022/02/09 06:55:57;;;;;;;11.85;7.00;;;;;;;;;;4825428;29;89983;-81
2022/02/09 06:58:56;;;;;;;9.50;6.88;;;;;;;;;;4816436;29;89944;-81
2022/02/09 07:01:15;;;;;;;11.88;6.78;;;;;;;;;;4844737;29;86975;-81
2022/02/09 07:03:42;;;;;;;8.23;7.25;;;;;;;;;;4822018;29;86952;-81
2022/02/09 07:06:09;;;;;;;13.68;7.65;;;;;;;;;;4805013;29;88564;-80
2022/02/09 07:08:35;;;;;;;12.55;7.00;;;;;;;;;;4828376;29;88093;-81
2022/02/09 07:11:03;;;;;;;12.07;7.45;;;;;;;;;;4816070;29;87398;-81
2022/02/09 07:13:30;;;;;;;10.68;6.95;;;;;;;;;;4832326;29;86258;-81
2022/02/09 07:16:03;;;;;;;10.80;6.72;;;;;;;;;;4819976;29;89707;-80
2022/02/09 07:18:30;;;;;;;13.55;7.88;;;;;;;;;;4832035;29;89718;-81
2022/02/09 07:21:04;;;;;;;16.13;8.85;;;;;;;;;;4833196;29;87816;-81
2022/02/09 07:23:38;;;;;;;12.30;7.50;;;;;;;;;;4818029;29;87243;-81
2022/02/09 07:26:12;;;;;;;13.50;7.90;;;;;;;;;;4845777;29;89383;-81
2022/02/09 07:28:40;;;;;;;18.42;7.63;;;;;;;;;;4817268;29;86968;-81
2022/02/09 07:31:08;;;;;;;17.52;9.27;;;;;;;;;;4831507;29;87021;-81
2022/02/09 07:33:36;;;;;;;18.60;10.07;;;;;;;;;;4825729;29;86908;-81
2022/02/09 07:36:04;;;;;;;15.95;9.73;;;;;;;;;;4812103;29;89882;-81
2022/02/09 07:38:31;;;;;;;14.65;7.88;;;;;;;;;;4812674;29;89030;-81
2022/02/09 07:41:00;;;;;;;20.67;6.95;;;;;;;;;;4814360;29;86996;-81
2022/02/09 07:43:44;;;;;;;11.35;6.43;;;;;;;;;;4832349;29;87036;-80
2022/02/09 07:49:06;;;;;;;14.00;7.05;;;;;;;;;;4828997;29;88378;-83
2022/02/09 07:51:41;;;;;;;10.30;8.45;;;;;;;;;;4830117;29;86953;-81
2022/02/09 07:54:10;;;;;;;13.95;6.10;;;;;;;;;;4825848;29;86976;-82
2022/02/09 07:56:42;;;;;;;8.13;5.13;;;;;;;;;;4822652;29;89437;-80
2022/02/09 07:59:11;;;;;;;11.73;5.95;;;;;;;;;;4830419;29;89440;-80
2022/02/09 08:01:39;;;;;;;18.55;6.25;;;;;;;;;;4831041;29;87116;-80
2022/02/09 08:04:07;;;;;;;10.38;6.13;;;;;;;;;;4831380;29;86211;-80
2022/02/09 08:06:35;;;;;;;13.45;5.60;;;;;;;;;;4815420;29;90951;-80
2022/02/09 08:09:14;;;;;;;9.30;7.20;;;;;;;;;;4830311;29;89307;-80
2022/02/09 08:12:02;;;;;;;17.75;6.30;;;;;;;;;;4829448;29;88398;-80
2022/02/09 08:28:46;;;;;;;49.08;11.32;;;;;;;;;;4819223;29;90245;-80
2022/02/09 08:33:43;;;;;;;72.65;13.68;;;;;;;;;;4814955;29;86872;-80
2022/02/09 08:36:10;;;;;;;75.00;14.65;;;;;;;;;;4830249;29;86987;-81
2022/02/09 08:38:39;;;;;;;64.40;13.73;;;;;;;;;;4828265;29;90446;-80
2022/02/09 08:41:05;;;;;;;58.70;12.93;;;;;;;;;;4829642;29;88999;-80
2022/02/09 08:43:32;;;;;;;27.27;7.85;;;;;;;;;;4829496;29;86927;-79
2022/02/09 08:45:59;;;;;;;10.10;6.13;;;;;;;;;;4828347;29;86981;-80
2022/02/09 08:48:26;;;;;;;20.73;6.47;;;;;;;;;;4829694;29;87110;-80
2022/02/09 08:50:53;;;;;;;36.55;8.32;;;;;;;;;;4830321;29;89181;-80
2022/02/09 08:53:21;;;;;;;28.17;7.72;;;;;;;;;;4830101;29;86991;-79
2022/02/09 08:55:48;;;;;;;19.35;7.43;;;;;;;;;;4831892;29;86199;-80
2022/02/09 08:58:19;;;;;;;15.38;6.00;;;;;;;;;;4845028;29;88025;-79
2022/02/09 09:00:47;;;;;;;14.02;6.47;;;;;;;;;;4844172;29;89093;-79
2022/02/09 09:05:48;;;;;;;11.32;5.70;;;;;;;;;;4814855;29;87112;-80
2022/02/09 10:03:16;;;;;;;14.23;8.05;;;;;;;;;;4828462;29;89516;-74
2022/02/09 10:33:56;;;;;;;11.45;7.18;;;;;;;;;;4829702;29;86867;-75
2022/02/09 10:36:24;;;;;;;10.70;6.50;;;;;;;;;;4828089;29;87804;-74
2022/02/09 10:39:08;;;;;;;11.05;5.70;;;;;;;;;;4818991;29;88714;-75
2022/02/09 10:41:42;;;;;;;7.97;5.93;;;;;;;;;;4813706;29;87363;-75
2022/02/09 10:44:19;;;;;;;10.95;6.90;;;;;;;;;;4842933;29;86773;-75
2022/02/09 10:46:53;;;;;;;9.02;6.75;;;;;;;;;;4799199;29;88022;-75
2022/02/09 10:49:22;;;;;;;;;;;;;;;;;;4843291;29;88408;-75
2022/02/09 10:54:29;;;;;;;8.30;6.50;;;;;;;;;;4829097;29;87076;-75
2022/02/09 10:56:58;;;;;;;9.00;6.75;;;;;;;;;;4843189;29;88326;-75
2022/02/09 10:59:26;;;;;;;13.52;7.45;;;;;;;;;;4827261;29;87842;-75
2022/02/09 11:01:56;;;;;;;7.43;6.20;;;;;;;;;;4826957;29;86982;-75
2022/02/09 11:04:23;;;;;;;16.08;8.18;;;;;;;;;;4814587;29;87189;-75
2022/02/09 11:06:50;;;;;;;10.40;6.82;;;;;;;;;;4809398;29;87666;-75
2022/02/09 11:09:28;;;;;;;14.40;7.43;;;;;;;;;;4810976;29;87911;-75
2022/02/09 11:11:55;;;;;;;8.80;7.32;;;;;;;;;;4824579;29;86959;-75
2022/02/09 11:14:25;;;;;;;12.02;6.78;;;;;;;;;;4819189;29;87292;-76
2022/02/09 11:16:55;;;;;;;11.65;7.03;;;;;;;;;;4811644;29;89090;-75
2022/02/09 11:19:32;;;;;;;12.50;9.40;;;;;;;;;;4830753;29;90239;-75
2022/02/09 11:22:16;;;;;;;14.05;9.43;;;;;;;;;;4830573;29;88262;-75
2022/02/09 11:24:45;;;;;;;17.60;11.88;;;;;;;;;;4845721;29;87403;-75
2022/02/09 11:27:30;;;;;;;9.40;8.07;;;;;;;;;;4815457;29;89135;-75
2022/02/09 11:30:14;;;;;;;10.45;7.10;;;;;;;;;;4839338;29;88816;-75
2022/02/09 11:33:37;;;;;;;11.55;6.90;;;;;;;;;;4832205;29;86887;-74
2022/02/09 11:36:26;;;;;;;11.40;8.02;;;;;;;;;;4843488;29;86189;-75
2022/02/09 11:39:00;;;;;;;13.60;7.80;;;;;;;;;;4830055;29;89954;-75
2022/02/09 11:41:36;;;;;;;;;;;;;;;;;;4801909;29;87426;-75
2022/02/09 11:44:12;;;;;;;14.75;7.07;;;;;;;;;;4845287;29;88431;-75
2022/02/09 12:11:20;;;;;;;17.77;7.95;;;;;;;;;;4816552;29;90075;-76
2022/02/09 12:19:27;;;;;;;11.43;7.50;;;;;;;;;;4831425;29;86812;-76
2022/02/09 12:22:11;;;;;;;12.02;7.72;;;;;;;;;;4801804;29;87031;-76
2022/02/09 12:24:38;;;;;;;11.30;7.47;;;;;;;;;;4816787;29;89426;-76
2022/02/09 12:27:13;;;;;;;11.95;7.82;;;;;;;;;;4844842;29;86947;-77
2022/02/09 12:29:42;;;;;;;11.80;7.60;;;;;;;;;;4845806;29;86163;-76
2022/02/09 12:32:14;;;;;;;15.07;8.43;;;;;;;;;;4830932;29;87984;-76
2022/02/09 12:34:43;;;;;;;18.58;7.25;;;;;;;;;;4830681;29;91346;-76
2022/02/09 12:37:12;;;;;;;19.63;8.77;;;;;;;;;;4814078;29;88334;-76
2022/02/09 12:40:07;;;;;;;9.48;7.60;;;;;;;;;;4844821;29;86977;-76
2022/02/09 12:42:46;;;;;;;17.08;7.57;;;;;;;;;;4828872;29;87672;-77
2022/02/09 12:45:17;;;;;;;16.85;8.00;;;;;;;;;;4830351;29;88976;-76
2022/02/09 12:47:47;;;;;;;15.93;7.55;;;;;;;;;;4844937;29;87006;-74
2022/02/09 12:50:20;;;;;;;16.17;7.68;;;;;;;;;;4814432;29;86822;-74
2022/02/09 12:52:47;;;;;;;21.83;8.75;;;;;;;;;;4832812;29;88543;-74
2022/02/09 12:55:25;;;;;;;13.38;7.80;;;;;;;;;;4847033;29;87971;-75
2022/02/09 12:58:00;;;;;;;12.07;7.72;;;;;;;;;;4817320;29;86843;-75
2022/02/09 13:00:40;;;;;;;8.18;6.55;;;;;;;;;;4804612;29;86914;-74
2022/02/09 13:03:13;;;;;;;10.68;6.63;;;;;;;;;;4816930;29;90825;-75
2022/02/09 13:05:43;;;;;;;13.75;8.23;;;;;;;;;;4847539;29;88417;-75
2022/02/09 13:08:11;;;;;;;13.15;7.60;;;;;;;;;;4844715;29;86732;-75
2022/02/09 13:10:39;;;;;;;12.90;6.43;;;;;;;;;;4830394;29;87880;-74
2022/02/09 13:13:15;;;;;;;18.27;7.78;;;;;;;;;;4812655;29;89640;-74
2022/02/09 13:24:30;;;;;;;11.60;7.80;;;;;;;;;;4829448;29;88323;-75
2022/02/09 14:53:23;;;;;;;13.48;7.68;;;;;;;;;;4831236;29;89312;-78
2022/02/09 14:58:27;;;;;;;14.95;9.07;;;;;;;;;;4831840;29;86904;-84
2022/02/09 15:04:29;;;;;;;11.65;7.70;;;;;;;;;;4832644;29;89061;-79
2022/02/09 15:09:03;;;;;;;24.90;10.23;;;;;;;;;;4831003;29;87115;-77
2022/02/09 15:14:15;;;;;;;13.13;7.80;;;;;;;;;;4831446;29;87648;-76
2022/02/09 15:19:26;;;;;;;13.38;9.90;;;;;;;;;;4831476;29;87863;-80
2022/02/09 15:24:37;;;;;;;10.48;8.00;;;;;;;;;;4832718;29;87805;-88
2022/02/09 15:27:05;;;;;;;19.02;8.23;;;;;;;;;;4830886;29;90641;-83
2022/02/09 15:29:36;;;;;;;17.05;8.93;;;;;;;;;;4827780;29;86858;-81
2022/02/09 15:32:09;;;;;;;18.48;8.95;;;;;;;;;;4827899;29;86889;-80
2022/02/09 15:34:43;;;;;;;13.52;8.20;;;;;;;;;;4829704;29;87758;-81
2022/02/09 15:37:20;;;;;;;14.70;8.70;;;;;;;;;;4830016;29;89379;-82
2022/02/09 15:39:52;;;;;;;15.23;7.53;;;;;;;;;;4831750;29;87708;-82
2022/02/09 16:09:22;;;;;;;22.08;9.23;;;;;;;;;;4831333;29;88475;-82
2022/02/09 16:20:47;;;;;;;20.58;10.45;;;;;;;;;;4831301;29;88938;-81
2022/02/09 16:44:37;;;;;;;19.92;12.13;;;;;;;;;;4820267;29;86838;-81
2022/02/09 16:47:11;;;;;;;34.85;14.00;;;;;;;;;;4814945;29;86906;-81
2022/02/09 16:49:49;;;;;;;;;;;;;;;;;;4829507;29;86904;-79
2022/02/09 16:52:23;;;;;;;21.27;10.82;;;;;;;;;;4831918;29;87568;-81
2022/02/09 16:55:14;;;;;;;;;;;;;;;;;;4822983;29;86817;-78
2022/02/09 17:19:33;;;;;;;22.73;13.63;;;;;;;;;;4830613;29;86939;-81
2022/02/09 17:22:00;;;;;;;18.60;11.18;;;;;;;;;;4820433;29;88876;-81
2022/02/09 17:24:27;;;;;;;24.83;11.15;;;;;;;;;;4810971;29;88772;-83
2022/02/09 17:26:54;;;;;;;19.58;12.23;;;;;;;;;;4811319;29;86919;-81
2022/02/09 17:29:28;;;;;;;23.73;12.40;;;;;;;;;;4810379;29;87036;-74
2022/02/09 17:32:06;;;;;;;24.67;12.93;;;;;;;;;;4826713;29;90002;-85
2022/02/09 17:53:29;;;;;;;30.13;12.95;;;;;;;;;;4828937;29;89440;-81
2022/02/09 17:56:09;;;;;;;19.63;10.90;;;;;;;;;;4828460;29;88091;-80
2022/02/09 17:58:44;;;;;;;25.83;13.77;;;;;;;;;;4827582;29;87897;-79
2022/02/09 18:01:12;;;;;;;21.38;11.38;;;;;;;;;;4827728;29;86987;-79
2022/02/09 18:03:41;;;;;;;17.85;14.05;;;;;;;;;;4828419;29;88567;-80
2022/02/09 18:06:17;;;;;;;24.65;15.57;;;;;;;;;;4829275;29;88126;-80
2022/02/09 18:08:53;;;;;;;28.88;16.40;;;;;;;;;;4827849;29;86828;-77
2022/02/09 18:11:41;;;;;;;27.83;17.05;;;;;;;;;;4827284;29;86989;-79
2022/02/09 18:31:06;;;;;;;26.52;16.65;;;;;;;;;;4811946;29;87006;-79
2022/02/09 18:34:05;;;;;;;32.75;15.18;;;;;;;;;;4809307;29;86876;-77
2022/02/09 18:44:44;;;;;;;32.17;20.13;;;;;;;;;;4828637;29;86193;-73
2022/02/09 19:01:15;;;;;;;41.28;24.63;;;;;;;;;;4814845;29;86991;-72
2022/02/09 19:17:38;;;;;;;39.97;23.45;;;;;;;;;;4830256;29;87368;-71
2022/02/09 19:31:12;;;;;;;28.73;20.33;;;;;;;;;;4846143;29;87983;-73
2022/02/09 19:49:53;;;;;;;43.35;28.38;;;;;;;;;;4831067;29;87442;-73
2022/02/09 19:52:47;;;;;;;43.67;25.67;;;;;;;;;;4834998;29;88321;-73
2022/02/09 19:55:31;;;;;;;44.20;30.60;;;;;;;;;;4834175;29;87056;-73
2022/02/09 19:58:00;;;;;;;42.53;27.08;;;;;;;;;;4827651;29;86980;-74
2022/02/09 20:00:31;;;;;;;38.35;25.85;;;;;;;;;;4822608;29;87020;-73
2022/02/09 20:02:59;;;;;;;38.67;28.40;;;;;;;;;;4828421;29;87091;-73
2022/02/09 20:05:27;;;;;;;41.53;26.67;;;;;;;;;;4821716;29;87656;-73
2022/02/09 20:07:55;;;;;;;36.40;27.58;;;;;;;;;;4818125;29;86902;-73
2022/02/09 20:10:23;;;;;;;34.78;24.63;;;;;;;;;;4824852;29;86973;-73
2022/02/09 20:12:51;;;;;;;37.53;24.60;;;;;;;;;;4827150;29;88843;-73
2022/02/09 20:15:18;;;;;;;36.72;25.50;;;;;;;;;;4812442;29;88607;-73
2022/02/09 20:17:46;;;;;;;34.78;23.55;;;;;;;;;;4830327;29;88598;-73
2022/02/09 20:20:27;;;;;;;30.45;22.40;;;;;;;;;;4843817;29;86836;-74
2022/02/09 20:22:56;;;;;;;29.38;20.95;;;;;;;;;;4827990;29;88066;-74
2022/02/09 20:25:24;;;;;;;32.40;20.80;;;;;;;;;;4826666;29;88069;-72
2022/02/09 20:27:53;;;;;;;31.58;21.90;;;;;;;;;;4827048;29;87389;-73
2022/02/09 20:30:25;;;;;;;32.28;21.35;;;;;;;;;;4843089;29;87379;-73
2022/02/09 20:32:57;;;;;;;26.33;19.67;;;;;;;;;;4828183;29;87779;-72
2022/02/09 20:35:25;;;;;;;31.95;19.45;;;;;;;;;;4821649;29;88557;-71
2022/02/09 20:37:54;;;;;;;27.88;19.73;;;;;;;;;;4813034;29;88128;-79
2022/02/09 20:42:56;;;;;;;31.23;21.50;;;;;;;;;;4821681;29;87063;-78
2022/02/09 20:45:29;;;;;;;29.20;19.83;;;;;;;;;;4827463;29;88061;-79
2022/02/09 20:48:17;;;;;;;31.35;20.63;;;;;;;;;;4842057;29;86956;-77
2022/02/09 20:50:45;;;;;;;25.17;18.85;;;;;;;;;;4838561;29;87523;-72
2022/02/09 20:53:14;;;;;;;25.58;18.70;;;;;;;;;;4797761;29;87902;-75
2022/02/09 20:55:46;;;;;;;24.02;19.80;;;;;;;;;;4826813;29;86402;-74
2022/02/09 20:58:14;;;;;;;25.50;19.65;;;;;;;;;;4829090;29;87620;-73
2022/02/09 21:01:01;;;;;;;31.73;19.05;;;;;;;;;;4827502;29;87156;-75
2022/02/09 21:06:11;;;;;;;29.35;19.20;;;;;;;;;;4842575;29;91441;-73
2022/02/09 21:17:00;;;;;;;26.58;20.40;;;;;;;;;;4823728;29;87075;-76
2022/02/09 21:56:52;;;;;;;24.88;18.23;;;;;;;;;;4832311;29;88798;-75
2022/02/09 21:59:57;;;;;;;28.95;19.55;;;;;;;;;;4841857;29;91638;-78
2022/02/09 22:29:52;;;;;;;23.75;17.73;;;;;;;;;;4822038;29;87792;-75
2022/02/09 22:33:22;;;;;;;24.90;20.13;;;;;;;;;;4821535;29;90293;-74
2022/02/09 22:54:30;;;;;;;24.52;18.58;;;;;;;;;;4822884;29;88496;-75
2022/02/09 22:56:57;;;;;;;25.95;18.55;;;;;;;;;;4820981;29;86839;-75
2022/02/09 23:02:04;;;;;;;25.38;18.92;;;;;;;;;;4839503;29;89290;-76
2022/02/09 23:09:55;;;;;;;28.13;18.88;;;;;;;;;;4804349;29;86254;-76
